Time;durP1;ratioP1;P1;durP2;ratioP2;P2;SDS_P1;SDS_P2;PMS_P1;PMS_P2;Temp;Humidity;BMP_temperature;BMP_pressure;BME280_temperature;BME280_humidity;BME280_pressure;Samples;Min_cycle;Max_cycle;Signal;HPM_P1;HPM_P2
2023/01/08 00:02:30;;;;;;;18.48;12.20;;;5.40;99.90;;;;;;6064532;23;20110;-83
2023/01/08 00:05:19;;;;;;;20.27;12.85;;;5.40;99.90;;;;;;6063337;23;20076;-87
2023/01/08 00:08:14;;;;;;;19.52;12.82;;;5.30;99.90;;;;;;6066450;23;20034;-85
2023/01/08 00:11:12;;;;;;;20.08;12.13;;;5.40;99.90;;;;;;6064391;23;20030;-84
2023/01/08 00:14:06;;;;;;;21.45;13.10;;;5.30;99.90;;;;;;6063876;23;20030;-82
2023/01/08 00:16:56;;;;;;;16.95;11.25;;;5.30;99.90;;;;;;6069448;23;20098;-86
2023/01/08 00:19:47;;;;;;;17.90;12.05;;;5.40;99.90;;;;;;6064391;23;20427;-83
2023/01/08 00:22:34;;;;;;;17.02;11.38;;;5.30;99.90;;;;;;6064079;23;20312;-86
2023/01/08 00:25:24;;;;;;;16.92;11.23;;;5.40;99.90;;;;;;6075252;23;20110;-87
2023/01/08 00:28:16;;;;;;;16.98;11.70;;;5.40;99.90;;;;;;6049436;23;20058;-85
2023/01/08 00:31:29;;;;;;;17.10;11.77;;;5.40;99.90;;;;;;6067359;23;20096;-82
2023/01/08 00:34:16;;;;;;;16.98;11.15;;;5.50;99.90;;;;;;6065754;23;20405;-86
2023/01/08 00:37:12;;;;;;;17.70;11.27;;;5.50;99.90;;;;;;6065453;23;20058;-83
2023/01/08 00:40:16;;;;;;;18.23;11.45;;;5.40;88.50;;;;;;6067202;23;20023;-84
2023/01/08 00:43:04;;;;;;;15.90;10.88;;;5.40;51.20;;;;;;6067524;23;20085;-83
2023/01/08 00:45:54;;;;;;;17.27;11.80;;;5.30;51.00;;;;;;6069512;23;20031;-84
2023/01/08 00:48:45;;;;;;;15.02;10.60;;;5.40;61.40;;;;;;6067802;23;20121;-86
2023/01/08 00:51:35;;;;;;;15.48;10.98;;;5.40;50.10;;;;;;6066060;23;20033;-86
2023/01/08 00:54:22;;;;;;;14.43;10.15;;;5.50;23.20;;;;;;6067005;23;20023;-84
2023/01/08 00:57:23;;;;;;;16.52;10.98;;;5.60;1.00;;;;;;6067300;23;20116;-85
2023/01/08 01:00:13;;;;;;;15.82;10.60;;;5.60;1.00;;;;;;6064306;23;20037;-84
2023/01/08 01:03:03;;;;;;;14.40;10.70;;;5.60;1.00;;;;;;6065268;23;20121;-85
2023/01/08 01:06:04;;;;;;;16.65;10.77;;;5.50;1.00;;;;;;6065722;23;20030;-84
2023/01/08 01:09:00;;;;;;;16.60;10.85;;;5.50;1.00;;;;;;6063877;23;20030;-84
2023/01/08 01:11:48;;;;;;;14.52;9.98;;;5.50;1.00;;;;;;6063250;23;20023;-84
2023/01/08 01:14:45;;;;;;;16.15;10.50;;;5.50;1.00;;;;;;6063248;23;20023;-82
2023/01/08 01:17:33;;;;;;;16.10;9.98;;;5.50;1.00;;;;;;6065767;23;20104;-85
2023/01/08 01:20:40;;;;;;;13.32;9.32;;;5.60;1.00;;;;;;6065378;23;20089;-84
2023/01/08 01:23:32;;;;;;;15.13;9.77;;;5.60;99.90;;;;;;6066114;23;20389;-84
2023/01/08 01:26:26;;;;;;;14.50;9.25;;;5.70;99.90;;;;;;6063201;23;20339;-84
2023/01/08 01:29:18;;;;;;;14.55;9.68;;;5.60;99.90;;;;;;6071245;23;20034;-85
2023/01/08 01:32:08;;;;;;;17.33;10.43;;;5.70;99.90;;;;;;6068444;23;20027;-85
2023/01/08 01:35:09;;;;;;;15.75;10.32;;;5.70;99.90;;;;;;6068583;23;20086;-86
2023/01/08 01:38:05;;;;;;;16.30;9.57;;;5.70;99.90;;;;;;6074856;23;20023;-84
2023/01/08 01:40:56;;;;;;;13.68;9.00;;;5.70;99.90;;;;;;6072736;23;20050;-85
2023/01/08 01:43:45;;;;;;;15.23;9.48;;;5.80;99.90;;;;;;6071465;23;20030;-84
2023/01/08 01:46:37;;;;;;;15.35;10.02;;;5.80;99.90;;;;;;6074973;23;20126;-84
2023/01/08 01:49:30;;;;;;;11.07;7.47;;;5.70;99.90;;;;;;6079796;23;20034;-84
2023/01/08 01:52:21;;;;;;;12.75;9.77;;;5.70;99.90;;;;;;6080397;23;20023;-83
2023/01/08 01:55:21;;;;;;;11.88;8.88;;;5.80;99.90;;;;;;6077730;23;20023;-85
2023/01/08 01:58:34;;;;;;;12.13;8.90;;;5.80;99.90;;;;;;6067294;23;20120;-85
2023/01/08 02:01:25;;;;;;;13.50;9.35;;;5.80;99.90;;;;;;6153005;23;20049;-82
2023/01/08 02:04:13;;;;;;;13.93;9.43;;;5.90;99.90;;;;;;6068005;23;20035;-84
2023/01/08 02:07:44;;;;;;;13.10;9.50;;;5.90;99.90;;;;;;6067001;23;20041;-83
2023/01/08 02:10:55;;;;;;;15.25;9.15;;;5.90;99.90;;;;;;6068552;23;20038;-83
2023/01/08 02:13:54;;;;;;;12.80;8.40;;;5.90;99.90;;;;;;6063857;23;20461;-84
2023/01/08 02:17:20;;;;;;;11.65;9.00;;;5.90;99.90;;;;;;6070888;23;20023;-84
2023/01/08 02:24:06;;;;;;;13.15;9.20;;;5.90;99.90;;;;;;6065847;23;20038;-83
2023/01/08 02:27:05;;;;;;;12.77;8.68;;;6.00;99.90;;;;;;6067711;23;20031;-84
2023/01/08 02:29:56;;;;;;;15.35;9.32;;;6.00;92.90;;;;;;6065086;23;20046;-85
2023/01/08 02:32:51;;;;;;;11.93;8.35;;;6.00;58.00;;;;;;6063928;23;20311;-84
2023/01/08 02:35:53;;;;;;;14.43;8.75;;;6.20;17.10;;;;;;6066283;23;20038;-84
2023/01/08 02:39:26;;;;;;;13.57;7.65;;;6.20;1.00;;;;;;6064232;23;20117;-85
2023/01/08 02:42:28;;;;;;;10.30;6.82;;;6.20;1.00;;;;;;6064647;23;20031;-83
2023/01/08 02:45:46;;;;;;;13.45;7.57;;;6.30;1.00;;;;;;6064092;23;20034;-84
2023/01/08 02:48:54;;;;;;;11.38;7.72;;;6.30;1.00;;;;;;6065711;23;20054;-84
2023/01/08 02:51:56;;;;;;;10.82;7.28;;;6.20;1.00;;;;;;6067143;23;20030;-83
2023/01/08 02:55:01;;;;;;;9.82;7.88;;;6.20;1.00;;;;;;6064582;23;20110;-85
2023/01/08 02:57:51;;;;;;;12.57;8.32;;;6.20;1.00;;;;;;6064935;23;20068;-85
2023/01/08 03:00:45;;;;;;;14.02;8.52;;;6.10;1.00;;;;;;6066037;23;20041;-84
2023/01/08 03:03:33;;;;;;;16.38;8.82;;;6.10;1.00;;;;;;6068336;23;20031;-84
2023/01/08 03:06:28;;;;;;;12.63;7.55;;;6.10;1.00;;;;;;6065597;23;20026;-83
2023/01/08 03:09:26;;;;;;;10.20;7.85;;;6.20;1.00;;;;;;6064425;23;20041;-83
2023/01/08 03:12:22;;;;;;;12.85;7.93;;;6.10;1.00;;;;;;6065053;23;20077;-83
2023/01/08 03:15:17;;;;;;;11.25;8.20;;;6.10;1.00;;;;;;6066466;23;20086;-83
2023/01/08 03:18:17;;;;;;;12.85;8.25;;;6.00;1.00;;;;;;6066600;23;20031;-84
2023/01/08 03:21:05;;;;;;;10.30;7.95;;;5.90;1.00;;;;;;6066352;23;20165;-84
2023/01/08 03:23:53;;;;;;;12.23;8.10;;;5.90;1.00;;;;;;6066116;23;20031;-83
2023/01/08 03:26:43;;;;;;;10.60;8.63;;;6.00;1.00;;;;;;6065586;23;20027;-81
2023/01/08 03:29:31;;;;;;;13.70;8.70;;;6.00;1.00;;;;;;6068849;23;20054;-83
2023/01/08 03:32:54;;;;;;;14.18;8.95;;;6.00;1.00;;;;;;6067979;23;20027;-85
2023/01/08 03:35:45;;;;;;;14.20;8.73;;;5.90;1.00;;;;;;6071075;23;20050;-83
2023/01/08 03:38:40;;;;;;;13.90;8.65;;;5.80;1.00;;;;;;6068945;23;20027;-82
2023/01/08 03:41:36;;;;;;;12.55;8.35;;;5.70;3.80;;;;;;6063857;23;20027;-84
2023/01/08 03:44:29;;;;;;;13.15;8.93;;;5.70;45.30;;;;;;6065133;23;20027;-84
2023/01/08 03:47:25;;;;;;;;;;;5.70;82.20;;;;;;6065684;23;20030;-83
2023/01/08 03:50:23;;;;;;;11.18;7.90;;;5.80;88.00;;;;;;6066874;23;19954;-83
2023/01/08 03:53:11;;;;;;;11.50;7.82;;;5.90;65.30;;;;;;6069061;23;20322;-83
2023/01/08 03:56:01;;;;;;;10.43;7.75;;;5.90;21.50;;;;;;6064107;23;20027;-84
2023/01/08 03:58:55;;;;;;;13.40;7.90;;;6.00;1.00;;;;;;6065883;23;20038;-84
2023/01/08 04:01:49;;;;;;;11.75;7.93;;;6.10;1.00;;;;;;6065573;23;20051;-82
2023/01/08 04:04:40;;;;;;;10.98;7.50;;;6.20;1.00;;;;;;6065722;23;20051;-83
2023/01/08 04:07:40;;;;;;;12.35;8.38;;;6.20;1.00;;;;;;6065802;23;20105;-83
2023/01/08 04:10:29;;;;;;;16.10;8.07;;;6.20;1.00;;;;;;6065910;23;20023;-83
2023/01/08 04:13:35;;;;;;;10.65;7.50;;;6.30;1.00;;;;;;6064645;23;20033;-83
2023/01/08 04:16:22;;;;;;;12.75;8.00;;;6.30;99.90;;;;;;6065816;23;20031;-84
2023/01/08 04:19:15;;;;;;;11.32;7.75;;;6.30;99.90;;;;;;6065772;23;20023;-84
2023/01/08 04:22:05;;;;;;;;;;;6.40;99.90;;;;;;6066625;23;20023;-84
2023/01/08 04:24:55;;;;;;;13.18;7.75;;;6.40;99.90;;;;;;6067134;23;19918;-84
2023/01/08 04:27:48;;;;;;;11.52;6.90;;;6.50;99.90;;;;;;6064800;23;20307;-83
2023/01/08 04:30:40;;;;;;;9.82;7.72;;;6.50;99.90;;;;;;6065618;23;20027;-82
2023/01/08 04:33:27;;;;;;;12.13;7.60;;;6.50;99.90;;;;;;6064753;23;20027;-83
2023/01/08 04:36:17;;;;;;;13.85;7.88;;;6.50;99.90;;;;;;6065247;23;20027;-82
2023/01/08 04:39:22;;;;;;;10.80;7.53;;;6.50;99.90;;;;;;6069083;23;20034;-84
2023/01/08 04:42:09;;;;;;;9.18;5.80;;;6.60;99.90;;;;;;6064705;23;20085;-85
2023/01/08 04:44:58;;;;;;;12.00;5.68;;;6.70;99.90;;;;;;6066039;23;20085;-86
2023/01/08 04:47:47;;;;;;;7.63;4.45;;;7.00;99.90;;;;;;6067455;23;20399;-85
2023/01/08 04:50:41;;;;;;;6.53;4.43;;;7.20;99.90;;;;;;6066671;23;20038;-84
2023/01/08 04:53:40;;;;;;;5.97;4.43;;;7.30;99.90;;;;;;6063654;23;20403;-85
2023/01/08 04:56:28;;;;;;;5.70;3.90;;;7.10;99.90;;;;;;6064790;23;20023;-85
2023/01/08 04:59:44;;;;;;;4.97;4.10;;;7.00;99.90;;;;;;6064168;23;20023;-87
2023/01/08 05:03:02;;;;;;;5.65;4.05;;;7.00;99.90;;;;;;6064321;23;20030;-84
2023/01/08 05:05:52;;;;;;;3.65;3.33;;;6.90;99.90;;;;;;6065347;23;20026;-83
2023/01/08 05:08:41;;;;;;;4.78;3.90;;;7.00;99.90;;;;;;6067571;23;20122;-84
2023/01/08 05:11:38;;;;;;;6.65;4.35;;;6.90;1.00;;;;;;6064866;23;20505;-84
2023/01/08 05:14:26;;;;;;;6.25;4.22;;;6.80;1.00;;;;;;6064586;23;20038;-83
2023/01/08 05:17:13;;;;;;;5.40;3.90;;;6.80;1.00;;;;;;6066679;23;20054;-83
2023/01/08 05:20:04;;;;;;;6.15;3.72;;;6.80;1.00;;;;;;6063603;23;20057;-83
2023/01/08 05:22:59;;;;;;;6.65;4.38;;;6.70;1.00;;;;;;6064806;23;20027;-82
2023/01/08 05:25:46;;;;;;;;;;;6.70;1.00;;;;;;6071243;23;20093;-84
2023/01/08 05:28:40;;;;;;;4.97;3.63;;;6.80;1.00;;;;;;6066139;23;20360;-82
2023/01/08 05:31:28;;;;;;;6.13;3.78;;;6.80;1.00;;;;;;6064758;23;20094;-83
2023/01/08 05:34:16;;;;;;;4.15;3.75;;;6.80;1.00;;;;;;6065701;23;20022;-83
2023/01/08 05:37:05;;;;;;;7.35;3.50;;;6.80;1.00;;;;;;6063475;23;20630;-83
2023/01/08 05:39:52;;;;;;;5.13;3.40;;;6.70;33.10;;;;;;6064288;23;20043;-83
2023/01/08 05:42:40;;;;;;;5.93;3.78;;;6.80;84.10;;;;;;6065222;23;20085;-83
2023/01/08 05:45:27;;;;;;;5.20;3.90;;;6.70;99.90;;;;;;6066289;23;20084;-86
2023/01/08 05:48:17;;;;;;;6.38;3.50;;;6.70;99.90;;;;;;6063955;23;20031;-83
2023/01/08 05:51:05;;;;;;;5.40;3.80;;;6.70;99.90;;;;;;6067211;23;20030;-83
2023/01/08 05:53:56;;;;;;;5.57;3.30;;;6.60;99.90;;;;;;6066197;23;20019;-83
2023/01/08 05:56:57;;;;;;;5.47;3.55;;;6.50;1.00;;;;;;6057762;23;20055;-85
2023/01/08 05:59:58;;;;;;;3.75;3.17;;;6.50;53.60;;;;;;6060281;23;20027;-84
2023/01/08 06:02:48;;;;;;;3.55;3.20;;;6.50;99.90;;;;;;6063986;23;20039;-82
2023/01/08 06:05:35;;;;;;;5.05;2.65;;;6.60;99.90;;;;;;6063724;23;20437;-85
2023/01/08 06:08:30;;;;;;;4.22;3.15;;;6.60;1.00;;;;;;6064287;23;20411;-83
2023/01/08 06:11:17;;;;;;;4.20;2.75;;;6.70;1.00;;;;;;6065141;23;20108;-83
2023/01/08 06:14:22;;;;;;;4.32;2.72;;;6.80;1.00;;;;;;6070929;23;20318;-85
2023/01/08 06:17:17;;;;;;;3.33;2.42;;;6.80;99.90;;;;;;6064439;23;20306;-82
2023/01/08 06:20:08;;;;;;;2.90;2.60;;;6.80;99.90;;;;;;6066353;23;20026;-83
2023/01/08 06:22:57;;;;;;;2.47;2.28;;;6.80;99.90;;;;;;6065570;23;20046;-84
2023/01/08 06:25:50;;;;;;;3.53;2.55;;;6.80;99.90;;;;;;6066176;23;20038;-83
2023/01/08 06:28:42;;;;;;;3.97;2.85;;;6.70;99.90;;;;;;6066927;23;20054;-83
2023/01/08 06:31:29;;;;;;;3.75;2.70;;;6.70;99.90;;;;;;6066253;23;20062;-85
2023/01/08 06:34:26;;;;;;;4.15;3.10;;;6.60;1.00;;;;;;6066524;23;20422;-85
2023/01/08 06:37:23;;;;;;;5.40;3.70;;;6.50;60.20;;;;;;6066436;23;20042;-85
2023/01/08 06:40:13;;;;;;;5.75;3.92;;;6.50;99.90;;;;;;6065661;23;20037;-84
2023/01/08 06:43:15;;;;;;;3.22;2.90;;;6.40;99.90;;;;;;6066026;23;20027;-85
2023/01/08 06:46:03;;;;;;;3.30;2.78;;;6.50;1.00;;;;;;6066457;23;20031;-85
2023/01/08 06:48:51;;;;;;;2.72;2.30;;;6.60;1.00;;;;;;6064685;23;20469;-87
2023/01/08 06:51:39;;;;;;;3.05;2.60;;;6.50;99.90;;;;;;6066979;23;20101;-86
2023/01/08 06:54:26;;;;;;;3.50;3.10;;;6.50;99.90;;;;;;6066620;23;20031;-84
2023/01/08 06:57:22;;;;;;;2.88;2.67;;;6.50;1.00;;;;;;6070850;23;20031;-87
2023/01/08 07:00:13;;;;;;;3.42;2.97;;;6.40;99.90;;;;;;6070039;23;20050;-85
2023/01/08 07:03:00;;;;;;;5.53;2.55;;;6.50;77.40;;;;;;6069412;23;20105;-84
2023/01/08 07:05:49;;;;;;;3.33;2.90;;;6.50;1.00;;;;;;6066878;23;20356;-84
2023/01/08 07:08:44;;;;;;;3.17;2.70;;;6.40;99.90;;;;;;6066479;23;20041;-85
2023/01/08 07:11:31;;;;;;;4.78;2.33;;;6.40;90.50;;;;;;6064175;23;20356;-86
2023/01/08 07:14:21;;;;;;;5.00;2.13;;;6.40;99.90;;;;;;6066842;23;20039;-88
2023/01/08 07:17:08;;;;;;;2.97;2.03;;;6.50;99.90;;;;;;6067583;23;20031;-86
2023/01/08 07:20:13;;;;;;;2.72;2.05;;;6.60;99.90;;;;;;6066227;23;20154;-86
2023/01/08 07:23:06;;;;;;;2.88;2.30;;;6.60;99.90;;;;;;6066587;23;20112;-86
2023/01/08 07:26:02;;;;;;;3.85;2.22;;;6.60;27.30;;;;;;6067810;23;20423;-86
2023/01/08 07:28:49;;;;;;;2.92;2.47;;;6.50;99.90;;;;;;6069290;23;20049;-82
2023/01/08 07:32:00;;;;;;;3.42;2.17;;;6.50;1.00;;;;;;6070559;23;20055;-85
2023/01/08 07:35:31;;;;;;;2.10;1.90;;;6.50;21.20;;;;;;6072625;23;20034;-87
2023/01/08 07:38:18;;;;;;;2.67;1.80;;;6.50;99.90;;;;;;6069579;23;20018;-85
2023/01/08 07:45:12;;;;;;;3.42;1.90;;;6.60;1.00;;;;;;6069142;23;20011;-84
2023/01/08 07:48:14;;;;;;;2.10;1.73;;;6.60;99.90;;;;;;6073629;23;20058;-88
2023/01/08 07:51:06;;;;;;;2.47;1.73;;;6.70;99.90;;;;;;6072268;23;20128;-84
2023/01/08 07:53:56;;;;;;;1.98;1.83;;;6.60;99.90;;;;;;6071154;23;20038;-85
2023/01/08 08:00:51;;;;;;;5.22;2.53;;;6.60;99.90;;;;;;6071763;23;20042;-85
2023/01/08 08:03:42;;;;;;;3.83;2.55;;;6.60;1.00;;;;;;6073592;23;20054;-86
2023/01/08 08:06:30;;;;;;;3.65;1.92;;;6.70;99.90;;;;;;6072049;23;20029;-86
2023/01/08 08:09:40;;;;;;;3.13;2.53;;;6.60;1.00;;;;;;6072526;23;20457;-84
2023/01/08 08:12:27;;;;;;;4.05;2.10;;;6.60;99.90;;;;;;6073420;23;20053;-86
2023/01/08 08:15:15;;;;;;;2.55;2.35;;;6.50;99.90;;;;;;6072579;23;20039;-83
2023/01/08 08:18:06;;;;;;;2.92;2.30;;;6.50;99.90;;;;;;6071848;23;20029;-87
2023/01/08 08:20:53;;;;;;;2.25;2.05;;;6.50;99.90;;;;;;6073521;23;20031;-82
2023/01/08 08:23:40;;;;;;;3.53;2.10;;;6.50;99.90;;;;;;6073255;23;20086;-86
2023/01/08 08:26:35;;;;;;;2.20;1.90;;;6.50;1.00;;;;;;6075273;23;20038;-83
2023/01/08 08:29:25;;;;;;;3.08;2.17;;;6.50;1.00;;;;;;6072805;23;20023;-85
2023/01/08 08:32:13;;;;;;;3.00;2.33;;;6.50;1.00;;;;;;6070255;23;20089;-87
2023/01/08 08:35:04;;;;;;;3.08;1.90;;;6.50;1.00;;;;;;6069590;23;20098;-83
2023/01/08 08:37:58;;;;;;;3.05;2.03;;;6.60;1.00;;;;;;6070599;23;20031;-85
2023/01/08 08:40:48;;;;;;;1.92;1.80;;;6.50;1.00;;;;;;6070632;23;20074;-85
2023/01/08 08:43:35;;;;;;;3.00;1.92;;;6.60;1.00;;;;;;6070951;23;20304;-86
2023/01/08 08:46:24;;;;;;;2.30;2.10;;;6.60;1.00;;;;;;6070438;23;20031;-86
2023/01/08 08:49:11;;;;;;;2.65;1.70;;;6.60;1.00;;;;;;6071462;23;20034;-84
2023/01/08 08:51:58;;;;;;;2.47;1.92;;;6.60;1.00;;;;;;6071042;23;20326;-83
2023/01/08 08:54:46;;;;;;;2.33;1.98;;;6.60;1.00;;;;;;6070828;23;20050;-86
2023/01/08 08:57:34;;;;;;;4.00;1.83;;;6.70;1.00;;;;;;6068414;23;20054;-88
2023/01/08 09:00:22;;;;;;;3.33;2.00;;;6.70;1.00;;;;;;6070230;23;20053;-86
2023/01/08 09:03:15;;;;;;;2.63;2.10;;;6.60;1.00;;;;;;6068007;23;20030;-83
2023/01/08 09:06:02;;;;;;;3.22;2.45;;;6.70;1.00;;;;;;6068746;23;20023;-85
2023/01/08 09:08:54;;;;;;;1.95;1.75;;;6.70;99.90;;;;;;6066153;23;20034;-86
2023/01/08 09:11:47;;;;;;;2.10;1.90;;;6.70;99.90;;;;;;6067711;23;20033;-86
2023/01/08 09:14:37;;;;;;;2.95;2.10;;;6.70;99.90;;;;;;6069458;23;20089;-85
2023/01/08 09:17:27;;;;;;;3.03;2.13;;;6.80;99.90;;;;;;6069920;23;20113;-85
2023/01/08 09:20:38;;;;;;;4.43;2.58;;;6.80;44.30;;;;;;6067187;23;20097;-84
2023/01/08 09:23:25;;;;;;;3.05;2.50;;;6.80;1.00;;;;;;6068208;23;20031;-87
2023/01/08 09:26:15;;;;;;;2.17;1.65;;;6.80;99.90;;;;;;6067659;23;20030;-84
2023/01/08 09:29:02;;;;;;;2.60;1.80;;;6.90;99.90;;;;;;6067557;23;20042;-84
2023/01/08 09:32:00;;;;;;;2.03;1.77;;;6.90;99.90;;;;;;6066896;23;20289;-84
2023/01/08 09:34:48;;;;;;;1.65;1.52;;;6.90;99.90;;;;;;6067096;23;20023;-84
2023/01/08 09:37:37;;;;;;;2.25;1.83;;;7.00;1.00;;;;;;6048304;23;20433;-83
2023/01/08 09:40:36;;;;;;;4.30;1.90;;;6.90;1.00;;;;;;6068142;23;20323;-85
2023/01/08 09:43:36;;;;;;;2.97;1.90;;;7.00;99.90;;;;;;6068338;23;20035;-82
2023/01/08 09:46:28;;;;;;;6.38;1.90;;;7.00;1.00;;;;;;6067011;23;20037;-85
2023/01/08 09:49:37;;;;;;;2.33;1.90;;;7.00;1.00;;;;;;6067529;23;20041;-83
2023/01/08 09:52:49;;;;;;;2.97;1.90;;;7.00;1.00;;;;;;6071473;23;20057;-83
2023/01/08 09:55:41;;;;;;;2.45;1.80;;;7.10;99.90;;;;;;6078625;23;20053;-85
2023/01/08 09:58:53;;;;;;;2.72;2.22;;;7.20;1.00;;;;;;6080834;23;20023;-86
2023/01/08 10:01:44;;;;;;;3.10;1.80;;;7.20;99.90;;;;;;6077188;23;20027;-83
2023/01/08 10:04:37;;;;;;;2.10;1.90;;;7.20;99.90;;;;;;6061546;23;20157;-85
2023/01/08 10:07:29;;;;;;;2.10;1.90;;;7.30;99.90;;;;;;6076739;23;20038;-86
2023/01/08 10:10:29;;;;;;;3.15;2.20;;;7.20;99.90;;;;;;6082251;23;20042;-84
2023/01/08 10:13:22;;;;;;;3.10;1.85;;;7.30;6.50;;;;;;6077336;23;20031;-86
2023/01/08 10:16:32;;;;;;;1.65;1.55;;;7.30;1.00;;;;;;6081561;23;20023;-85
2023/01/08 10:19:20;;;;;;;2.13;1.70;;;7.30;99.90;;;;;;6076971;23;20030;-83
2023/01/08 10:22:20;;;;;;;2.25;2.03;;;7.40;99.90;;;;;;6080526;23;20026;-84
2023/01/08 10:25:15;;;;;;;2.13;1.83;;;7.40;99.90;;;;;;6076840;23;20114;-83
2023/01/08 10:28:28;;;;;;;2.47;1.88;;;7.30;99.90;;;;;;6076655;23;20315;-85
2023/01/08 10:31:42;;;;;;;1.42;1.33;;;7.30;99.90;;;;;;6076941;23;20050;-85
2023/01/08 10:34:55;;;;;;;1.98;1.70;;;7.30;99.90;;;;;;6077463;23;20031;-85
2023/01/08 10:37:46;;;;;;;2.10;1.80;;;7.30;99.90;;;;;;6076536;23;20051;-86
2023/01/08 10:40:33;;;;;;;1.75;1.65;;;7.40;99.90;;;;;;6076616;23;20029;-86
2023/01/08 10:43:44;;;;;;;3.58;1.70;;;7.40;99.90;;;;;;6075524;23;20034;-85
2023/01/08 10:46:43;;;;;;;2.75;1.88;;;7.40;99.90;;;;;;6078389;23;20082;-85
2023/01/08 10:49:42;;;;;;;1.83;1.45;;;7.50;99.90;;;;;;6078593;23;20041;-84
2023/01/08 10:52:35;;;;;;;1.83;1.67;;;7.60;99.90;;;;;;6083345;23;20051;-84
2023/01/08 10:55:28;;;;;;;3.75;1.83;;;7.60;45.80;;;;;;6077981;23;20023;-87
2023/01/08 10:58:18;;;;;;;2.53;2.00;;;7.70;1.00;;;;;;6077724;23;20038;-85
2023/01/08 11:01:36;;;;;;;3.17;1.48;;;7.80;1.00;;;;;;6078377;23;20037;-85
2023/01/08 11:04:35;;;;;;;1.60;1.50;;;7.90;99.90;;;;;;6077846;23;20038;-86
2023/01/08 11:07:26;;;;;;;1.40;1.30;;;8.00;99.90;;;;;;6079195;23;20031;-84
2023/01/08 11:10:30;;;;;;;1.85;1.52;;;8.10;99.90;;;;;;6077739;23;20473;-86
2023/01/08 11:13:21;;;;;;;1.50;1.40;;;8.10;46.20;;;;;;6075494;23;20031;-85
2023/01/08 11:19:36;;;;;;;1.40;1.30;;;8.00;1.00;;;;;;6086333;23;20031;-85
2023/01/08 11:22:27;;;;;;;1.60;1.50;;;8.10;1.00;;;;;;6084535;23;20118;-84
2023/01/08 11:25:31;;;;;;;4.65;1.70;;;8.10;1.00;;;;;;6078775;23;20434;-84
2023/01/08 11:28:45;;;;;;;1.63;1.52;;;8.10;1.00;;;;;;6079722;23;20362;-84
2023/01/08 11:32:06;;;;;;;1.98;1.80;;;8.10;1.00;;;;;;6148372;23;20041;-87
2023/01/08 11:35:12;;;;;;;1.70;1.60;;;8.20;1.00;;;;;;6078087;23;20049;-84
2023/01/08 11:38:01;;;;;;;1.58;1.48;;;8.30;1.00;;;;;;6077251;23;20053;-87
2023/01/08 11:40:50;;;;;;;1.60;1.50;;;8.40;1.00;;;;;;6083655;23;20030;-84
2023/01/08 11:44:45;;;;;;;1.67;1.40;;;8.40;1.00;;;;;;6088471;23;20031;-87
2023/01/08 11:47:53;;;;;;;2.47;1.58;;;8.30;99.90;;;;;;6169906;23;20022;-83
2023/01/08 11:50:57;;;;;;;1.67;1.38;;;8.40;99.90;;;;;;6076229;23;20027;-80
2023/01/08 11:54:17;;;;;;;1.45;1.35;;;8.50;99.90;;;;;;6074712;23;20077;-80
2023/01/08 11:57:36;;;;;;;2.35;1.73;;;8.50;99.90;;;;;;6078120;23;20047;-82
2023/01/08 12:04:31;;;;;;;3.65;1.80;;;8.60;99.90;;;;;;6087453;23;20018;-82
2023/01/08 12:07:48;;;;;;;1.95;1.40;;;8.50;99.90;;;;;;6087705;23;20022;-85
2023/01/08 12:10:53;;;;;;;3.50;1.73;;;8.50;99.90;;;;;;6086570;23;20027;-84
2023/01/08 12:22:10;;;;;;;3.20;1.70;;;8.50;99.90;;;;;;6077112;23;20044;-84
2023/01/08 12:25:06;;;;;;;1.65;1.08;;;8.50;99.90;;;;;;6067628;23;20399;-84
2023/01/08 12:28:15;;;;;;;2.50;1.90;;;8.50;99.90;;;;;;6066960;23;20342;-84
2023/01/08 12:31:28;;;;;;;1.63;1.35;;;8.50;99.90;;;;;;6067778;23;20089;-82
2023/01/08 12:34:33;;;;;;;1.60;1.40;;;8.60;99.90;;;;;;6066365;23;20031;-83
2023/01/08 12:37:38;;;;;;;1.85;1.35;;;8.50;99.90;;;;;;6065040;23;20027;-82
2023/01/08 12:40:54;;;;;;;3.47;1.55;;;8.50;99.90;;;;;;6064699;23;20453;-83
2023/01/08 12:43:46;;;;;;;1.70;1.40;;;8.50;99.90;;;;;;6065857;23;20034;-85
2023/01/08 12:46:55;;;;;;;1.42;1.30;;;8.50;99.90;;;;;;6065089;23;20031;-83
2023/01/08 12:50:03;;;;;;;1.60;1.50;;;8.50;99.90;;;;;;6064354;23;20112;-85
2023/01/08 12:53:02;;;;;;;1.55;1.45;;;8.50;99.90;;;;;;6064257;23;20054;-85
2023/01/08 12:56:07;;;;;;;2.47;1.30;;;8.50;99.90;;;;;;6065161;23;20106;-84
2023/01/08 12:59:16;;;;;;;1.70;1.60;;;8.50;99.90;;;;;;6064652;23;20037;-86
2023/01/08 13:02:24;;;;;;;1.77;1.65;;;8.60;99.90;;;;;;6064137;23;20027;-88
2023/01/08 13:05:36;;;;;;;2.00;1.80;;;8.60;97.80;;;;;;6063715;23;20015;-83
2023/01/08 13:08:34;;;;;;;1.83;1.63;;;8.50;95.90;;;;;;6064749;23;20031;-83
2023/01/08 13:11:37;;;;;;;1.52;1.42;;;8.40;96.80;;;;;;6064095;23;20027;-83
2023/01/08 13:14:48;;;;;;;2.08;1.65;;;8.30;99.90;;;;;;6065562;23;20042;-85
2023/01/08 13:17:37;;;;;;;2.35;1.88;;;8.40;99.90;;;;;;6063612;23;20027;-86
2023/01/08 13:20:34;;;;;;;2.60;1.55;;;8.40;99.90;;;;;;6062531;23;20026;-86
2023/01/08 13:23:26;;;;;;;2.38;1.88;;;8.30;99.90;;;;;;6065072;23;20051;-86
2023/01/08 13:26:38;;;;;;;1.67;1.58;;;8.30;99.90;;;;;;6067843;23;20027;-84
2023/01/08 13:29:41;;;;;;;2.80;1.52;;;8.30;99.90;;;;;;6068474;23;20114;-87
2023/01/08 13:32:47;;;;;;;1.52;1.35;;;8.30;99.90;;;;;;6077328;23;20033;-84
2023/01/08 13:35:38;;;;;;;2.33;1.67;;;8.40;71.40;;;;;;6079411;23;20031;-84
2023/01/08 13:38:26;;;;;;;1.40;1.30;;;8.30;40.70;;;;;;6077887;23;20065;-84
2023/01/08 13:41:38;;;;;;;2.47;1.42;;;8.50;27.70;;;;;;6082069;23;20019;-84
2023/01/08 13:44:44;;;;;;;2.25;1.30;;;8.60;21.80;;;;;;6085330;23;20073;-85
2023/01/08 13:47:41;;;;;;;1.17;1.08;;;8.70;1.00;;;;;;6068926;23;20133;-86
2023/01/08 13:50:31;;;;;;;1.15;1.08;;;8.70;1.00;;;;;;6068151;23;20091;-86
2023/01/08 13:53:37;;;;;;;1.40;1.30;;;8.70;1.00;;;;;;6064222;23;20027;-85
2023/01/08 13:56:51;;;;;;;1.67;1.55;;;8.80;1.00;;;;;;6065789;23;20124;-88
2023/01/08 14:00:08;;;;;;;0.90;0.90;;;8.90;1.00;;;;;;6064512;23;20061;-84
2023/01/08 14:02:55;;;;;;;1.33;1.20;;;8.90;99.90;;;;;;6064335;23;20054;-86
2023/01/08 14:05:43;;;;;;;1.10;1.10;;;8.80;99.90;;;;;;6063967;23;20141;-87
2023/01/08 14:08:35;;;;;;;1.27;1.17;;;8.70;99.90;;;;;;6063639;23;20122;-86
2023/01/08 14:11:40;;;;;;;1.38;1.27;;;8.60;99.90;;;;;;6047604;23;20037;-85
2023/01/08 14:14:28;;;;;;;1.35;1.17;;;8.40;99.90;;;;;;6064178;23;20027;-88
2023/01/08 14:17:17;;;;;;;1.20;1.10;;;8.40;1.00;;;;;;6061985;23;20034;-88
2023/01/08 14:20:22;;;;;;;1.90;1.52;;;8.50;1.00;;;;;;6063036;23;20034;-86
2023/01/08 14:23:12;;;;;;;1.52;1.40;;;8.50;99.90;;;;;;6064849;23;20423;-85
2023/01/08 14:26:12;;;;;;;1.50;1.20;;;8.40;99.90;;;;;;6065500;23;20038;-85
2023/01/08 14:29:04;;;;;;;0.98;0.98;;;8.40;99.90;;;;;;6062028;23;20046;-86
2023/01/08 14:32:37;;;;;;;3.47;1.77;;;8.40;1.00;;;;;;6063162;23;20342;-87
2023/01/08 14:38:58;;;;;;;1.48;1.17;;;8.40;1.00;;;;;;6062260;23;20085;-86
2023/01/08 14:45:34;;;;;;;1.63;1.13;;;8.40;1.00;;;;;;6065039;23;20445;-87
2023/01/08 14:48:39;;;;;;;2.28;1.13;;;8.40;1.00;;;;;;6063484;23;20034;-86
2023/01/08 14:51:33;;;;;;;1.83;1.40;;;8.40;1.00;;;;;;6065407;23;20041;-87
2023/01/08 14:54:25;;;;;;;2.75;1.08;;;8.30;1.00;;;;;;6066232;23;20035;-87
2023/01/08 14:57:13;;;;;;;2.53;1.58;;;8.30;1.00;;;;;;6065529;23;20049;-85
2023/01/08 15:00:04;;;;;;;1.23;1.13;;;8.30;1.00;;;;;;6066824;23;20027;-86
2023/01/08 15:02:54;;;;;;;1.45;1.10;;;8.40;1.00;;;;;;6066255;23;20027;-86
2023/01/08 15:05:48;;;;;;;1.30;1.20;;;8.40;1.00;;;;;;6064574;23;20041;-86
2023/01/08 15:08:43;;;;;;;1.20;1.10;;;8.50;1.00;;;;;;6065343;23;20058;-88
2023/01/08 15:11:53;;;;;;;1.48;0.93;;;8.40;1.00;;;;;;6065540;23;20041;-86
2023/01/08 15:14:43;;;;;;;2.85;1.13;;;8.30;1.00;;;;;;6064465;23;20031;-85
2023/01/08 15:17:34;;;;;;;1.33;1.23;;;8.20;1.00;;;;;;6064278;23;20031;-85
2023/01/08 15:20:47;;;;;;;1.15;1.05;;;8.10;1.00;;;;;;6066219;23;20124;-86
2023/01/08 15:23:58;;;;;;;0.93;0.90;;;8.00;1.00;;;;;;6065191;23;20027;-87
2023/01/08 15:27:10;;;;;;;1.30;1.20;;;7.90;17.70;;;;;;6065551;23;20085;-85
2023/01/08 15:30:02;;;;;;;1.20;1.10;;;7.80;92.40;;;;;;6064722;23;20058;-84
2023/01/08 15:32:49;;;;;;;1.27;1.17;;;7.70;99.90;;;;;;6064530;23;20041;-87
2023/01/08 15:35:48;;;;;;;1.38;1.27;;;7.60;99.90;;;;;;6066184;23;20027;-85
2023/01/08 15:38:35;;;;;;;1.20;1.10;;;7.60;99.90;;;;;;6063047;23;20102;-85
2023/01/08 15:44:29;;;;;;;2.78;1.20;;;7.60;99.90;;;;;;6064131;23;20292;-84
2023/01/08 15:47:18;;;;;;;1.30;1.20;;;7.60;1.00;;;;;;6064921;23;20101;-85
2023/01/08 15:50:09;;;;;;;3.78;1.60;;;7.60;1.00;;;;;;6064635;23;20023;-85
2023/01/08 15:52:57;;;;;;;1.58;1.30;;;7.60;1.00;;;;;;6062674;23;20033;-85
2023/01/08 15:55:45;;;;;;;1.60;1.50;;;7.60;1.00;;;;;;6064368;23;20062;-85
2023/01/08 15:58:48;;;;;;;1.70;1.58;;;7.60;1.00;;;;;;6065685;23;20038;-85
2023/01/08 16:01:47;;;;;;;2.45;1.70;;;7.50;1.00;;;;;;6065828;23;20023;-85
2023/01/08 16:04:35;;;;;;;2.08;1.80;;;7.50;1.00;;;;;;6064357;23;20057;-85
2023/01/08 16:07:22;;;;;;;2.00;1.73;;;7.50;1.00;;;;;;6063690;23;20085;-86
2023/01/08 16:10:14;;;;;;;3.00;2.00;;;7.50;4.90;;;;;;6065032;23;20026;-86